createdAt,value
2023-01-07T00:02:44.728Z,8.50
2023-01-07T00:08:06.382Z,8.50
2023-01-07T00:13:27.907Z,8.40
2023-01-07T00:18:51.061Z,8.50
2023-01-07T00:24:12.817Z,8.50
2023-01-07T00:29:34.154Z,8.50
2023-01-07T00:34:55.373Z,8.60
2023-01-07T00:40:17.763Z,8.60
2023-01-07T00:45:39.282Z,8.50
2023-01-07T00:51:00.585Z,8.50
2023-01-07T00:56:22.245Z,8.40
2023-01-07T01:01:43.801Z,8.40
2023-01-07T01:07:05.135Z,8.60
2023-01-07T01:12:27.032Z,8.40
2023-01-07T01:17:50.453Z,8.40
2023-01-07T01:23:11.867Z,8.30
2023-01-07T01:28:34.557Z,8.30
2023-01-07T01:33:57.471Z,8.20
2023-01-07T01:39:20.582Z,8.10
2023-01-07T01:44:47.329Z,8.10
2023-01-07T01:50:34.575Z,8.00
2023-01-07T01:56:03.197Z,7.90
2023-01-07T02:01:25.320Z,7.80
2023-01-07T02:07:01.311Z,7.80
2023-01-07T02:12:49.327Z,7.70
2023-01-07T02:18:35.988Z,7.60
2023-01-07T02:24:33.710Z,7.60
2023-01-07T02:30:12.922Z,7.50
2023-01-07T02:36:00.484Z,7.40
2023-01-07T02:41:53.090Z,7.30
2023-01-07T02:47:35.869Z,7.30
2023-01-07T02:52:57.796Z,7.40
2023-01-07T02:58:48.729Z,7.10
2023-01-07T03:04:27.315Z,7.30
2023-01-07T03:09:54.408Z,7.30
2023-01-07T03:15:22.387Z,7.40
2023-01-07T03:20:47.452Z,7.40
2023-01-07T03:26:12.493Z,7.40
2023-01-07T03:31:35.566Z,7.30
2023-01-07T03:37:04.061Z,7.30
2023-01-07T03:42:41.463Z,7.40
2023-01-07T03:48:16.139Z,7.20
2023-01-07T03:53:37.613Z,7.20
2023-01-07T03:58:59.302Z,7.10
2023-01-07T04:04:21.418Z,7.10
2023-01-07T04:09:43.282Z,6.90
2023-01-07T04:15:06.040Z,6.90
2023-01-07T04:20:27.497Z,6.90
2023-01-07T04:25:49.714Z,6.90
2023-01-07T04:31:15.149Z,6.70
2023-01-07T04:36:37.547Z,6.80
2023-01-07T04:42:00.097Z,6.90
2023-01-07T04:47:22.751Z,6.90
2023-01-07T04:52:44.654Z,7.00
2023-01-07T04:58:06.737Z,7.10
2023-01-07T05:03:28.572Z,7.10
2023-01-07T05:08:50.047Z,7.30
2023-01-07T05:14:13.330Z,7.40
2023-01-07T05:19:35.035Z,7.40
2023-01-07T05:24:56.896Z,7.50
2023-01-07T05:30:20.926Z,7.50
2023-01-07T05:35:42.068Z,7.60
2023-01-07T05:41:04.266Z,7.70
2023-01-07T05:46:28.509Z,7.80
2023-01-07T05:51:49.945Z,7.80
2023-01-07T05:57:11.525Z,7.80
2023-01-07T06:02:33.189Z,7.90
2023-01-07T06:07:54.744Z,7.90
2023-01-07T06:13:16.441Z,7.90
2023-01-07T06:18:38.042Z,7.90
2023-01-07T06:23:59.660Z,8.00
2023-01-07T06:29:21.171Z,8.10
2023-01-07T06:34:42.729Z,8.10
2023-01-07T06:40:05.179Z,7.90
2023-01-07T06:45:26.680Z,7.90
2023-01-07T06:50:48.427Z,7.80
2023-01-07T06:56:10.013Z,7.90
2023-01-07T07:01:31.828Z,7.80
2023-01-07T07:06:53.209Z,7.90
2023-01-07T07:12:14.842Z,7.90
2023-01-07T07:17:36.483Z,7.90
2023-01-07T07:22:57.738Z,7.90
2023-01-07T07:28:19.106Z,8.00
2023-01-07T07:33:40.711Z,8.00
2023-01-07T07:39:02.222Z,8.10
2023-01-07T07:44:23.814Z,8.00
2023-01-07T07:49:45.216Z,8.00
2023-01-07T07:55:20.664Z,8.00
2023-01-07T08:00:48.075Z,8.10
2023-01-07T08:06:09.936Z,8.10
2023-01-07T08:11:31.426Z,8.10
2023-01-07T08:16:52.931Z,8.10
2023-01-07T08:22:14.554Z,8.20
2023-01-07T08:27:35.662Z,8.10
2023-01-07T08:32:57.776Z,8.10
2023-01-07T08:38:19.452Z,8.10
2023-01-07T08:43:42.001Z,8.20
2023-01-07T08:49:03.757Z,8.20
2023-01-07T08:54:25.262Z,8.10
2023-01-07T08:59:46.645Z,8.20
2023-01-07T09:05:08.672Z,8.30
2023-01-07T09:10:32.579Z,8.40
2023-01-07T09:15:54.233Z,8.40
2023-01-07T09:21:16.153Z,8.50
2023-01-07T09:26:37.477Z,8.60
2023-01-07T09:31:59.191Z,8.80
2023-01-07T09:37:20.795Z,8.90
2023-01-07T09:43:11.370Z,9.00
2023-01-07T09:48:39.047Z,9.20
2023-01-07T09:54:03.233Z,9.20
2023-01-07T09:59:24.964Z,9.40
2023-01-07T10:04:46.512Z,9.50
2023-01-07T10:10:22.715Z,9.50
2023-01-07T10:16:17.136Z,9.60
2023-01-07T10:21:55.089Z,9.60
2023-01-07T10:27:18.929Z,9.60
2023-01-07T10:32:41.784Z,9.70
2023-01-07T10:38:05.777Z,9.80
2023-01-07T10:43:39.575Z,9.90
2023-01-07T10:49:34.762Z,9.80
2023-01-07T10:55:15.758Z,9.80
2023-01-07T11:00:38.810Z,9.70
2023-01-07T11:06:06.221Z,9.70
2023-01-07T11:11:27.664Z,9.60
2023-01-07T11:17:18.875Z,9.60
2023-01-07T11:22:40.751Z,9.70
2023-01-07T11:28:04.421Z,9.80
2023-01-07T11:34:02.840Z,10.00
2023-01-07T11:39:29.780Z,9.90
2023-01-07T11:45:12.602Z,9.90
2023-01-07T11:50:44.704Z,9.90
2023-01-07T11:56:20.104Z,9.90
2023-01-07T12:01:47.705Z,9.80
2023-01-07T12:07:15.530Z,9.80
2023-01-07T12:12:42.818Z,10.00
2023-01-07T12:18:37.589Z,9.90
2023-01-07T12:24:20.235Z,9.80
2023-01-07T12:30:27.732Z,9.80
2023-01-07T12:35:49.379Z,9.80
2023-01-07T12:41:24.272Z,9.90
2023-01-07T12:47:31.154Z,10.00
2023-01-07T12:52:53.055Z,9.90
2023-01-07T12:58:21.578Z,9.90
2023-01-07T13:04:14.047Z,9.90
2023-01-07T13:10:05.916Z,10.00
2023-01-07T13:15:33.936Z,9.90
2023-01-07T13:21:11.132Z,9.90
2023-01-07T13:26:56.028Z,9.90
2023-01-07T13:32:34.187Z,9.90
2023-01-07T13:38:13.543Z,9.70
2023-01-07T13:44:06.544Z,9.70
2023-01-07T13:49:33.460Z,9.60
2023-01-07T13:54:57.063Z,9.80
2023-01-07T14:00:40.415Z,9.70
2023-01-07T14:06:20.332Z,9.90
2023-01-07T14:12:05.918Z,9.90
2023-01-07T14:17:58.957Z,9.90
2023-01-07T14:23:28.099Z,9.90
2023-01-07T14:29:01.427Z,9.90
2023-01-07T14:34:26.938Z,9.80
2023-01-07T14:39:48.552Z,9.70
2023-01-07T14:45:36.333Z,9.70
2023-01-07T14:51:19.457Z,9.70
2023-01-07T14:56:50.309Z,9.70
2023-01-07T15:02:45.471Z,9.80
2023-01-07T15:08:29.436Z,9.50
2023-01-07T15:14:19.713Z,9.60
2023-01-07T15:19:42.688Z,9.70
2023-01-07T15:25:19.180Z,9.70
2023-01-07T15:30:51.570Z,9.70
2023-01-07T15:36:15.829Z,9.70
2023-01-07T15:41:39.164Z,9.60
2023-01-07T15:47:00.890Z,9.60
2023-01-07T15:52:26.430Z,9.60
2023-01-07T15:57:49.410Z,9.50
2023-01-07T16:03:18.715Z,9.30
2023-01-07T16:08:44.133Z,9.10
2023-01-07T16:14:16.914Z,8.90
2023-01-07T16:19:38.274Z,8.70
2023-01-07T16:25:00.469Z,8.50
2023-01-07T16:30:22.262Z,8.20
2023-01-07T16:35:46.824Z,7.80
2023-01-07T16:41:12.321Z,7.70
2023-01-07T16:46:41.380Z,7.50
2023-01-07T16:52:07.234Z,7.20
2023-01-07T16:57:41.794Z,7.10
2023-01-07T17:03:03.275Z,6.80
2023-01-07T17:08:25.150Z,6.70
2023-01-07T17:13:46.690Z,6.50
2023-01-07T17:19:41.514Z,6.40
2023-01-07T17:25:10.120Z,6.30
2023-01-07T17:30:36.698Z,6.30
2023-01-07T17:35:57.801Z,6.30
2023-01-07T17:41:39.948Z,6.40
2023-01-07T17:47:02.753Z,6.50
2023-01-07T17:52:24.447Z,6.60
2023-01-07T17:57:45.757Z,6.70
2023-01-07T18:03:07.315Z,6.70
2023-01-07T18:08:28.700Z,6.80
2023-01-07T18:13:49.905Z,6.90
2023-01-07T18:19:15.480Z,7.00
2023-01-07T18:24:36.745Z,7.00
2023-01-07T18:29:58.386Z,7.10
2023-01-07T18:35:19.812Z,7.10
2023-01-07T18:40:42.350Z,7.20
2023-01-07T18:46:08.601Z,7.20
2023-01-07T18:51:30.223Z,7.30
2023-01-07T18:56:51.830Z,7.40
2023-01-07T19:02:20.195Z,7.40
2023-01-07T19:07:41.916Z,7.50
2023-01-07T19:13:03.570Z,7.40
2023-01-07T19:18:25.213Z,7.40
2023-01-07T19:23:48.108Z,7.40
2023-01-07T19:29:11.756Z,7.30
2023-01-07T19:34:34.721Z,7.20
2023-01-07T19:39:56.200Z,7.30
2023-01-07T19:45:17.852Z,7.00
2023-01-07T19:50:39.459Z,7.00
2023-01-07T19:56:08.745Z,7.00
2023-01-07T20:01:30.587Z,6.80
2023-01-07T20:06:52.297Z,6.80
2023-01-07T20:12:13.859Z,6.60
2023-01-07T20:17:35.561Z,6.60
2023-01-07T20:22:57.165Z,6.60
2023-01-07T20:28:19.242Z,6.40
2023-01-07T20:33:41.705Z,6.30
2023-01-07T20:39:05.987Z,6.20
2023-01-07T20:44:27.312Z,6.00
2023-01-07T20:49:48.688Z,5.90
2023-01-07T20:55:10.180Z,5.70
2023-01-07T21:00:31.858Z,5.50
2023-01-07T21:05:57.230Z,5.30
2023-01-07T21:11:23.859Z,5.20
2023-01-07T21:16:45.364Z,5.00
2023-01-07T21:22:06.878Z,4.80
2023-01-07T21:27:28.467Z,4.60
2023-01-07T21:32:50.148Z,4.40
2023-01-07T21:38:11.802Z,4.40
2023-01-07T21:43:33.400Z,4.30
2023-01-07T21:48:55.928Z,4.20
2023-01-07T21:54:17.697Z,4.10
2023-01-07T21:59:39.342Z,3.90
2023-01-07T22:05:01.014Z,3.90
2023-01-07T22:10:22.663Z,4.00
2023-01-07T22:15:44.312Z,4.00
2023-01-07T22:21:05.940Z,4.00
2023-01-07T22:26:27.486Z,4.00
2023-01-07T22:31:51.159Z,4.00
2023-01-07T22:37:16.578Z,3.90
2023-01-07T22:42:56.735Z,3.80
2023-01-07T22:48:24.053Z,3.80
2023-01-07T22:53:45.584Z,3.90
2023-01-07T22:59:06.696Z,3.90
2023-01-07T23:04:28.469Z,4.00
2023-01-07T23:09:51.597Z,4.10
2023-01-07T23:15:13.203Z,4.20
2023-01-07T23:20:42.301Z,4.20
2023-01-07T23:26:03.662Z,4.20
2023-01-07T23:31:25.194Z,4.30
2023-01-07T23:36:46.775Z,4.30
2023-01-07T23:42:08.431Z,4.40
2023-01-07T23:47:29.951Z,4.60
2023-01-07T23:52:51.581Z,4.60
2023-01-07T23:58:13.061Z,4.70
